Terminal Aerodrome Forecast
Issued by NWS Nashville, TN

Home | Current Version | Previous Version | Text Only | Print | Product List | Glossary On
Versions: 1 2 3 4 5 6 7 8 9 10 11 12 13 14 15 16 17 18 19 20
000
FTUS44 KOHX 271100 RRA
TAFCSV
TAF
KCSV 271146Z 2712/2812 29013G24KT 3SM -SN OVC015
     FM271300 30012G20KT P6SM OVC007
     FM271500 32010KT P6SM OVC015
     FM271800 31010KT P6SM BKN025
     FM280000 31008KT P6SM BKN050
     FM280800 00000KT P6SM OVC090=

USA.gov is the U.S. government's official web portal to all federal, state and local government web resources and services.